Aérodrome :
LOGIN :

S'inscrire | Disclaimer

   EN    FR    IT 

 










Légende :    VFR   VFR Marginal   IFR   IFR Intensif   IFR Très Intensif
Visi : 
Plafond : 
>= 8 km
>= 3000ft
5 à 8 km
1000 à 3000 ft
1500m à 5 km
500 à 1000 ft
800 à 1500m
200 à 500 ft
< 800m
< 200 ft
Symboles :   Orages  Brouillard  Fortes neiges  Fortes précipitations  Vent > 20 kt
SIGMETs :   Divers  Orages  Givrage  Turbulence  Onde Orograph.  Cendres Volcan.







- Altitude de l'aérodrome : 1475 ft


LSZC - Buochs Stans

DERNIER METAR :
  • 171820Z AUTO VRB03KT 9999 -RA BKN050 03/01 Q1013 REDZ

METARs EXPIRÉS :
  • 171750Z AUTO VRB03KT 9999 FEW060 SCT080 BKN100 03/01 Q1013
  • 171720Z AUTO 24004KT 210V280 9999 -DZ SCT060 BKN080 BKN110 03/01 Q1012
  • 171650Z AUTO VRB03KT 9999 BKN050 SCT070 BKN100 03/02 Q1012 REDZ
  • 171620Z AUTO 19004KT 9999 -RA BKN050 SCT070 04/02 Q1012 REDZ
  • 171550Z AUTO VRB02KT 9999 -RA BKN050 03/02 Q1012

TAF TAF LSZC
Valide du 17 à 15h jusqu'au 18 à 00h UTC


171425Z 1715/1724 VRB03KT 7000 -RA BKN030
TEMPO 1715/1724 4000 RA
PROB40
TEMPO 1720/1724 2400 SHSNRA BKN009
Pas de NOTAMs connus pour ce terrain.



MET'MAP, la Météo Aéronautique d'un coup d'oeil ! - Copyright ORBIFLY Décembre 2007 - Disclaimer

ORBIFLY MET'MAP TEAM :

Programmation & Développement : Alexandra Zaïnal
Conception & Développement : Baudouin d'Aumeries
Co-Programmation & Développement : Marc-Olivier Méhu
Soutien technique & logistique : Manuel Goepfert

Contact : metmap@orbifly.com




SOURCES & CREDITS :

   NOAA